Time;durP1;ratioP1;P1;durP2;ratioP2;P2;SDS_P1;SDS_P2;PMS_P1;PMS_P2;Temp;Humidity;BMP_temperature;BMP_pressure;BME280_temperature;BME280_humidity;BME280_pressure;Samples;Min_cycle;Max_cycle;Signal;HPM_P1;HPM_P2
2022/11/30 00:01:19;;;;;;;4.93;3.03;;;;;;;5.54;93.02;94963.97;5071854;28;20178;-80
2022/11/30 00:03:46;;;;;;;3.67;2.63;;;;;;;5.48;92.98;94962.09;5072198;28;20205;-79
2022/11/30 00:06:13;;;;;;;5.17;2.80;;;;;;;5.53;92.67;94970.22;5072625;28;20292;-80
2022/11/30 00:08:39;;;;;;;5.28;3.58;;;;;;;5.55;93.08;94975.22;5070860;28;20920;-79
2022/11/30 00:11:13;;;;;;;6.27;3.57;;;;;;;4.85;93.34;94864.13;5054559;28;20265;-79
2022/11/30 00:13:39;;;;;;;5.30;2.97;;;;;;;5.36;93.54;94945.25;5072265;28;20163;-79
2022/11/30 00:16:05;;;;;;;3.87;2.83;;;;;;;5.52;93.09;94973.81;5072547;28;20198;-79
2022/11/30 00:18:31;;;;;;;4.00;2.77;;;;;;;5.12;93.48;94911.50;5072746;28;20690;-79
2022/11/30 00:21:04;;;;;;;3.37;2.90;;;;;;;5.25;93.45;94930.81;5072076;28;20166;-80
2022/11/30 00:23:34;;;;;;;3.40;2.57;;;;;;;5.43;93.48;94967.03;5072262;28;20543;-78
2022/11/30 00:26:08;;;;;;;3.73;2.80;;;;;;;5.28;93.58;94945.28;5071898;28;20186;-80
2022/11/30 00:28:36;;;;;;;4.53;2.50;;;;;;;5.49;93.66;94987.19;5070758;28;20445;-80
2022/11/30 00:31:04;;;;;;;3.38;1.90;;;;;;;5.46;92.31;94958.81;5070773;28;20451;-80
2022/11/30 00:33:32;;;;;;;4.00;2.15;;;;;;;5.07;91.63;94908.63;5064035;28;20410;-79
2022/11/30 00:35:58;;;;;;;2.27;1.40;;;;;;;5.53;91.33;94990.28;5071793;28;20250;-79
2022/11/30 00:38:24;;;;;;;3.70;1.80;;;;;;;5.42;91.00;94985.47;5070315;28;20478;-80
2022/11/30 00:40:50;;;;;;;2.03;1.20;;;;;;;5.37;91.45;94988.59;5054006;28;20175;-80
2022/11/30 00:43:15;;;;;;;1.73;1.17;;;;;;;5.35;91.86;94981.94;5071763;28;20202;-79
2022/11/30 00:45:41;;;;;;;2.20;1.47;;;;;;;5.39;92.12;94981.41;5070863;28;20896;-79
2022/11/30 00:48:06;;;;;;;1.07;1.00;;;;;;;5.31;92.69;94976.25;5072401;28;20417;-79
2022/11/30 00:50:32;;;;;;;2.63;1.30;;;;;;;5.27;92.10;94954.94;5071861;28;20421;-80
2022/11/30 00:52:57;;;;;;;1.45;1.10;;;;;;;5.03;91.61;94922.97;5054786;28;20491;-80
2022/11/30 00:55:23;;;;;;;1.27;1.13;;;;;;;4.73;91.32;94865.53;5071377;28;20428;-80
2022/11/30 00:57:48;;;;;;;1.20;0.90;;;;;;;5.30;91.86;94974.63;5071614;28;20227;-80
2022/11/30 01:00:14;;;;;;;2.40;1.02;;;;;;;4.97;91.46;94926.31;5070410;28;20789;-80
2022/11/30 01:02:39;;;;;;;1.45;1.10;;;;;;;5.03;91.17;94934.22;5069945;28;20444;-80
2022/11/30 01:05:05;;;;;;;1.60;0.90;;;;;;;4.92;90.60;94935.47;5071589;28;21216;-80
2022/11/30 01:07:30;;;;;;;1.47;1.00;;;;;;;5.06;90.76;94959.16;5069974;28;20428;-81
2022/11/30 01:09:55;;;;;;;1.20;1.10;;;;;;;4.97;91.25;94952.38;5070720;28;20433;-80
2022/11/30 01:12:21;;;;;;;1.03;0.90;;;;;;;5.09;91.28;94971.88;5070021;28;20493;-81
2022/11/30 01:14:46;;;;;;;1.40;0.93;;;;;;;5.02;91.13;94969.13;5071868;28;20181;-80
2022/11/30 01:17:12;;;;;;;1.03;0.80;;;;;;;4.60;91.39;94906.19;5070156;28;20413;-81
2022/11/30 01:19:37;;;;;;;2.00;1.10;;;;;;;4.65;91.71;94922.13;5071572;28;20183;-80
2022/11/30 01:22:03;;;;;;;1.00;0.90;;;;;;;4.60;91.48;94907.00;5074154;28;20437;-80
2022/11/30 01:24:28;;;;;;;1.73;0.90;;;;;;;4.61;91.98;94910.41;5075447;28;20185;-79
2022/11/30 01:26:54;;;;;;;1.43;1.00;;;;;;;4.39;91.72;94899.00;5074907;28;20421;-81
2022/11/30 01:29:19;;;;;;;1.00;0.90;;;;;;;4.86;92.75;94964.84;5075632;28;20400;-79
2022/11/30 01:31:44;;;;;;;0.73;0.70;;;;;;;4.83;92.28;94962.59;5073931;28;20496;-80
2022/11/30 01:34:10;;;;;;;1.03;1.03;;;;;;;4.84;91.86;94966.78;5073999;28;20452;-80
2022/11/30 01:36:37;;;;;;;3.10;0.90;;;;;;;4.87;91.60;94958.63;5075011;28;20420;-79
2022/11/30 01:39:06;;;;;;;0.90;0.82;;;;;;;4.57;91.56;94919.56;5074145;28;20414;-80
2022/11/30 01:41:32;;;;;;;0.80;0.75;;;;;;;4.59;91.95;94928.81;5070558;28;20809;-80
2022/11/30 01:44:17;;;;;;;0.70;0.70;;;;;;;4.76;92.15;94966.03;5074907;28;20528;-80
2022/11/30 01:46:45;;;;;;;1.20;0.85;;;;;;;4.67;92.20;94959.28;5018005;28;20901;-79
2022/11/30 01:49:26;;;;;;;0.82;0.80;;;;;;;4.71;92.67;94957.94;5073461;28;21140;-80
2022/11/30 01:51:59;;;;;;;1.15;1.00;;;;;;;4.72;91.96;94962.16;5067868;28;20406;-79
2022/11/30 01:54:42;;;;;;;1.15;0.90;;;;;;;4.70;92.63;94957.13;5073165;28;20787;-80
2022/11/30 01:57:33;;;;;;;1.00;0.90;;;;;;;4.65;93.09;94941.19;5073080;28;20530;-80
2022/11/30 02:00:00;;;;;;;1.07;0.80;;;;;;;4.41;93.02;94904.84;5057380;28;20185;-80
2022/11/30 02:03:11;;;;;;;1.70;1.10;;;;;;;4.46;93.31;94926.78;5073567;28;20912;-79
2022/11/30 02:05:39;;;;;;;1.52;1.10;;;;;;;4.67;93.13;94939.19;5046243;28;20904;-80
2022/11/30 02:08:06;;;;;;;1.83;1.08;;;;;;;4.68;93.18;94916.56;5073182;28;20454;-80
2022/11/30 02:10:34;;;;;;;1.27;1.10;;;;;;;4.63;92.92;94921.47;5074620;28;20413;-80
2022/11/30 02:13:28;;;;;;;1.17;1.00;;;;;;;4.55;94.00;94938.00;5073507;28;20445;-80
2022/11/30 02:16:20;;;;;;;1.20;1.00;;;;;;;4.64;95.01;94923.09;5072702;28;20444;-81
2022/11/30 02:18:48;;;;;;;1.45;0.98;;;;;;;4.66;94.49;94928.97;5072459;28;20417;-80
2022/11/30 02:21:55;;;;;;;1.30;1.20;;;;;;;4.77;94.59;94920.72;5072880;28;20406;-80
2022/11/30 02:24:49;;;;;;;1.83;1.25;;;;;;;4.58;94.66;94875.09;4991247;28;20460;-80
2022/11/30 02:27:20;;;;;;;2.92;1.40;;;;;;;4.70;95.22;94931.03;4990858;28;20420;-80
2022/11/30 02:29:57;;;;;;;2.72;1.50;;;;;;;4.50;95.67;94886.34;5049122;28;20422;-80
2022/11/30 02:32:31;;;;;;;3.47;1.70;;;;;;;4.57;95.93;94896.94;5073468;28;20433;-81
2022/11/30 02:34:59;;;;;;;3.60;1.88;;;;;;;4.39;96.58;94872.94;5072710;28;20421;-81
2022/11/30 02:37:27;;;;;;;4.32;1.83;;;;;;;4.64;97.04;94903.06;5072741;28;20418;-81
2022/11/30 02:39:53;;;;;;;2.55;1.77;;;;;;;4.82;96.97;94927.06;5066138;28;20417;-81
2022/11/30 02:42:18;;;;;;;2.87;2.00;;;;;;;4.55;97.02;94868.44;5072667;28;20414;-80
2022/11/30 02:44:50;;;;;;;2.73;2.30;;;;;;;4.72;96.97;94892.59;5054913;28;20488;-80
2022/11/30 02:47:39;;;;;;;3.50;2.75;;;;;;;4.70;97.33;94899.75;5072189;28;20474;-81
2022/11/30 02:50:16;;;;;;;3.15;2.60;;;;;;;4.46;98.12;94871.25;5073826;28;20414;-80
2022/11/30 02:52:42;;;;;;;3.45;2.60;;;;;;;4.60;98.71;94887.94;5065646;28;20465;-80
2022/11/30 02:55:13;;;;;;;4.40;3.05;;;;;;;4.49;99.37;94897.78;5072129;28;20451;-80
2022/11/30 02:57:39;;;;;;;5.45;3.40;;;;;;;4.63;100.00;94924.91;5072759;28;20406;-80
2022/11/30 03:00:09;;;;;;;4.60;3.47;;;;;;;4.74;100.00;94919.31;5073246;28;20916;-80
2022/11/30 03:02:35;;;;;;;8.00;4.10;;;;;;;4.55;99.66;94876.25;5054125;28;20518;-81
2022/11/30 03:05:00;;;;;;;4.95;3.10;;;;;;;4.85;99.50;94924.09;5073521;28;20453;-80
2022/11/30 03:07:26;;;;;;;5.03;3.60;;;;;;;4.91;99.82;94939.06;5071971;28;20434;-81
2022/11/30 03:09:51;;;;;;;4.57;3.35;;;;;;;4.93;100.00;94926.63;5070289;28;20429;-77
2022/11/30 03:12:17;;;;;;;4.97;3.60;;;;;;;4.90;100.00;94918.38;5071573;28;20590;-78
2022/11/30 03:14:42;;;;;;;4.23;3.50;;;;;;;5.05;99.75;94939.28;5071062;28;20417;-77
2022/11/30 03:17:07;;;;;;;3.63;3.33;;;;;;;5.14;99.54;94925.19;5071607;28;20422;-76
2022/11/30 03:19:33;;;;;;;3.40;2.80;;;;;;;5.10;98.57;94922.09;5069732;28;20494;-77
2022/11/30 03:21:58;;;;;;;4.05;2.85;;;;;;;5.10;98.58;94932.53;5070860;28;20425;-77
2022/11/30 03:24:24;;;;;;;3.10;2.80;;;;;;;4.99;98.39;94913.91;5071164;28;20450;-77
2022/11/30 03:26:50;;;;;;;3.58;2.60;;;;;;;5.02;98.59;94930.00;5054805;28;20548;-77
2022/11/30 03:29:16;;;;;;;4.10;2.95;;;;;;;5.05;99.53;94934.06;5071173;28;20791;-77
2022/11/30 03:31:41;;;;;;;3.67;2.80;;;;;;;5.12;98.96;94921.94;5071747;28;20406;-78
2022/11/30 03:34:07;;;;;;;4.87;2.93;;;;;;;5.07;98.99;94912.03;5069515;28;20430;-76
2022/11/30 03:36:32;;;;;;;3.80;2.90;;;;;;;5.07;99.32;94932.91;5070556;28;20418;-77
2022/11/30 03:38:57;;;;;;;3.43;2.80;;;;;;;5.02;99.32;94909.13;5070597;28;20406;-77
2022/11/30 03:41:23;;;;;;;5.43;3.07;;;;;;;5.00;99.69;94934.59;5070707;28;20410;-78
2022/11/30 03:43:48;;;;;;;4.07;2.73;;;;;;;5.13;99.56;94940.03;5070052;28;20766;-78
2022/11/30 03:46:14;;;;;;;2.73;2.47;;;;;;;5.18;99.63;94929.09;5070907;28;20441;-77
2022/11/30 03:48:40;;;;;;;4.80;2.60;;;;;;;5.11;99.12;94934.16;5070399;28;20843;-78
2022/11/30 03:51:06;;;;;;;3.28;2.53;;;;;;;5.23;99.00;94937.19;5070295;28;20417;-77
2022/11/30 03:53:32;;;;;;;3.72;2.42;;;;;;;5.18;99.14;94937.72;5070482;28;20433;-78
2022/11/30 03:56:01;;;;;;;3.30;2.60;;;;;;;4.90;99.24;94919.19;5070883;28;20417;-78
2022/11/30 03:58:27;;;;;;;4.57;3.25;;;;;;;4.94;100.00;94922.22;5062600;28;20417;-78
2022/11/30 04:00:59;;;;;;;4.57;3.25;;;;;;;5.13;100.00;94937.41;5053290;28;20446;-77
2022/11/30 04:03:24;;;;;;;2.97;2.30;;;;;;;5.15;99.63;94932.84;5070771;28;20811;-78
2022/11/30 04:05:49;;;;;;;2.90;2.33;;;;;;;4.88;99.64;94921.16;5053749;28;20439;-81
2022/11/30 04:08:15;;;;;;;3.60;2.50;;;;;;;5.06;99.86;94933.88;5068256;28;20428;-81
2022/11/30 04:10:40;;;;;;;3.07;2.40;;;;;;;5.05;99.95;94937.47;5071440;28;20421;-80
2022/11/30 04:13:05;;;;;;;3.57;2.60;;;;;;;4.73;99.91;94885.56;5070614;28;20445;-81
2022/11/30 04:15:31;;;;;;;3.57;2.93;;;;;;;5.13;99.83;94941.81;5052756;28;20487;-81
2022/11/30 04:17:56;;;;;;;3.25;2.70;;;;;;;5.01;99.85;94931.00;5071152;28;20420;-79
2022/11/30 04:20:22;;;;;;;5.20;2.73;;;;;;;5.02;100.00;94950.06;5070434;28;20425;-80
2022/11/30 04:22:47;;;;;;;3.90;2.77;;;;;;;4.32;100.00;94909.28;5070349;28;20398;-82
2022/11/30 04:25:12;;;;;;;3.58;3.10;;;;;;;4.39;100.00;94927.66;5070161;28;20421;-80
2022/11/30 04:27:38;;;;;;;3.60;2.80;;;;;;;4.51;100.00;94957.53;5069983;28;20827;-80
2022/11/30 04:30:04;;;;;;;3.10;2.43;;;;;;;4.32;100.00;94890.25;5070280;28;20923;-79
2022/11/30 04:32:30;;;;;;;2.50;2.30;;;;;;;4.85;100.00;94952.78;5070835;28;20444;-79
2022/11/30 04:34:56;;;;;;;2.90;2.33;;;;;;;4.74;100.00;94923.69;5070486;28;20777;-79
2022/11/30 04:37:21;;;;;;;2.57;2.00;;;;;;;4.92;100.00;94950.31;5070964;28;20428;-79
2022/11/30 04:39:46;;;;;;;5.53;2.50;;;;;;;5.04;100.00;94959.34;5070286;28;20465;-76
2022/11/30 04:42:12;;;;;;;3.20;2.50;;;;;;;5.09;99.47;94951.00;5068186;28;20410;-74
2022/11/30 04:44:37;;;;;;;3.63;2.70;;;;;;;4.97;99.23;94955.00;5069560;28;20451;-77
2022/11/30 04:47:03;;;;;;;3.10;1.93;;;;;;;4.70;99.26;94920.63;5070815;28;20548;-76
2022/11/30 04:49:28;;;;;;;3.27;2.43;;;;;;;4.86;99.52;94959.63;5070094;28;20427;-76
2022/11/30 04:51:53;;;;;;;3.47;1.97;;;;;;;4.69;99.66;94939.03;5068415;28;20417;-77
2022/11/30 04:54:19;;;;;;;4.60;2.33;;;;;;;4.82;100.00;94963.56;5068425;28;20414;-76
2022/11/30 04:56:44;;;;;;;2.73;2.03;;;;;;;4.74;100.00;94966.22;5069135;28;20442;-77
2022/11/30 04:59:10;;;;;;;4.03;2.57;;;;;;;4.63;100.00;94943.16;5070053;28;20453;-76
2022/11/30 05:01:35;;;;;;;2.58;2.00;;;;;;;4.60;100.00;94933.06;5069767;28;20503;-76
2022/11/30 05:04:00;;;;;;;2.13;1.90;;;;;;;4.66;100.00;94955.03;5052332;28;20913;-76
2022/11/30 05:06:26;;;;;;;3.00;2.10;;;;;;;4.78;100.00;94959.66;5069866;28;20437;-76
2022/11/30 05:08:51;;;;;;;5.55;2.10;;;;;;;4.70;100.00;94951.91;5069569;28;20418;-76
2022/11/30 05:11:17;;;;;;;3.67;2.37;;;;;;;4.72;100.00;94955.16;5069617;28;20509;-76
2022/11/30 05:13:42;;;;;;;3.38;2.30;;;;;;;4.66;100.00;94965.47;5069534;28;20520;-78
2022/11/30 05:16:09;;;;;;;2.90;2.20;;;;;;;4.65;100.00;94956.84;5069288;28;20501;-77
2022/11/30 05:18:35;;;;;;;3.23;2.30;;;;;;;4.68;100.00;94960.88;5069063;28;20475;-77
2022/11/30 05:21:01;;;;;;;2.58;2.38;;;;;;;4.61;100.00;94968.56;5069040;28;20413;-78
2022/11/30 05:23:27;;;;;;;2.50;2.20;;;;;;;4.45;100.00;94946.03;5067578;28;20413;-77
2022/11/30 05:25:53;;;;;;;3.22;2.53;;;;;;;4.60;100.00;94966.94;5069605;28;20491;-78
2022/11/30 05:28:18;;;;;;;3.00;2.50;;;;;;;4.70;100.00;94980.56;5068275;28;20940;-78
2022/11/30 05:30:44;;;;;;;2.93;2.60;;;;;;;4.67;100.00;94978.31;5069589;28;20463;-80
2022/11/30 05:33:09;;;;;;;3.85;2.75;;;;;;;4.70;100.00;94967.53;5069218;28;20954;-78
2022/11/30 05:35:35;;;;;;;3.40;2.40;;;;;;;4.75;100.00;94969.66;5070144;28;20424;-78
2022/11/30 05:38:01;;;;;;;3.33;2.70;;;;;;;4.68;100.00;94968.69;5069338;28;20406;-78
2022/11/30 05:40:27;;;;;;;3.78;2.65;;;;;;;4.64;100.00;94952.59;5070458;28;20425;-78
2022/11/30 05:42:56;;;;;;;4.88;2.65;;;;;;;4.79;100.00;94971.72;5069534;28;20872;-78
2022/11/30 05:45:22;;;;;;;5.20;2.78;;;;;;;4.65;100.00;94951.63;5070176;28;20443;-78
2022/11/30 05:47:48;;;;;;;3.80;2.50;;;;;;;4.83;100.00;94973.03;5067808;28;21049;-78
2022/11/30 05:50:13;;;;;;;4.37;3.03;;;;;;;4.75;100.00;94970.47;5068184;28;20468;-78
2022/11/30 05:52:39;;;;;;;4.40;2.80;;;;;;;4.91;100.00;94986.00;5048888;28;20435;-77
2022/11/30 05:55:05;;;;;;;3.50;2.70;;;;;;;4.92;100.00;94990.25;5068292;28;20935;-77
2022/11/30 05:57:30;;;;;;;3.90;2.70;;;;;;;4.86;100.00;94980.47;5051134;28;20486;-77
2022/11/30 05:59:55;;;;;;;4.43;2.77;;;;;;;4.81;100.00;94989.81;5068947;28;20410;-78
2022/11/30 06:02:21;;;;;;;3.47;2.60;;;;;;;4.48;100.00;94950.91;5069030;28;20914;-78
2022/11/30 06:04:46;;;;;;;4.60;3.00;;;;;;;4.77;100.00;94989.34;5068654;28;20537;-78
2022/11/30 06:07:11;;;;;;;3.53;2.47;;;;;;;4.78;100.00;94990.97;5072458;28;20252;-77
2022/11/30 06:09:38;;;;;;;4.67;2.83;;;;;;;4.91;100.00;94995.63;5072433;28;20413;-77
2022/11/30 06:12:04;;;;;;;3.83;2.78;;;;;;;4.87;100.00;94968.25;5072509;28;20409;-77
2022/11/30 06:14:29;;;;;;;4.72;2.70;;;;;;;4.95;99.96;94996.88;5072535;28;20410;-78
2022/11/30 06:16:55;;;;;;;2.80;2.00;;;;;;;4.96;99.38;95000.31;5069932;28;21035;-78
2022/11/30 06:19:20;;;;;;;2.60;2.20;;;;;;;4.96;98.86;94998.50;5070691;28;20430;-77
2022/11/30 06:21:45;;;;;;;2.73;2.20;;;;;;;4.73;98.78;94967.22;5070119;28;20464;-77
2022/11/30 06:24:11;;;;;;;2.77;2.07;;;;;;;4.80;98.91;95009.06;5070027;28;20255;-77
2022/11/30 06:26:36;;;;;;;4.33;1.80;;;;;;;4.38;99.58;94980.75;5070463;28;20984;-77
2022/11/30 06:29:02;;;;;;;3.90;2.20;;;;;;;4.40;100.00;94997.03;5068048;28;20425;-77
2022/11/30 06:31:29;;;;;;;2.78;1.90;;;;;;;4.37;100.00;94997.38;5071194;28;20425;-77
2022/11/30 06:33:58;;;;;;;3.75;2.10;;;;;;;4.44;100.00;94996.50;5071740;28;20838;-78
2022/11/30 06:36:23;;;;;;;4.05;2.28;;;;;;;4.49;100.00;94996.84;5070624;28;20448;-78
2022/11/30 06:38:49;;;;;;;3.92;2.28;;;;;;;4.55;100.00;95000.53;5067079;28;20426;-78
2022/11/30 06:41:15;;;;;;;3.83;2.50;;;;;;;4.69;100.00;94999.81;5066456;28;20429;-76
2022/11/30 06:43:40;;;;;;;4.57;2.08;;;;;;;4.75;99.98;95006.97;5072096;28;20418;-78
2022/11/30 06:46:06;;;;;;;4.33;2.07;;;;;;;4.75;99.96;95021.78;5072745;28;20417;-74
2022/11/30 06:48:33;;;;;;;3.13;1.92;;;;;;;4.68;99.43;95013.00;5071592;28;20443;-77
2022/11/30 06:50:59;;;;;;;2.40;1.85;;;;;;;4.39;100.00;94991.00;5054392;28;20801;-78
2022/11/30 06:53:25;;;;;;;2.47;1.90;;;;;;;4.66;99.80;95008.00;5071475;28;20450;-75
2022/11/30 06:55:51;;;;;;;4.83;1.90;;;;;;;4.66;99.25;95010.59;5067425;28;20419;-76
2022/11/30 06:58:17;;;;;;;4.07;1.80;;;;;;;4.90;99.10;95015.69;5051781;28;20414;-77
2022/11/30 07:00:42;;;;;;;1.83;1.60;;;;;;;4.93;97.44;95017.09;5051710;28;20415;-77
2022/11/30 07:03:10;;;;;;;2.30;1.98;;;;;;;4.73;97.84;95018.53;5051512;28;21204;-77
2022/11/30 07:05:41;;;;;;;3.17;2.37;;;;;;;4.76;98.91;95019.00;5053244;28;20182;-77
2022/11/30 07:08:06;;;;;;;4.05;2.10;;;;;;;4.87;97.68;95016.00;5066449;28;20437;-76
2022/11/30 07:10:32;;;;;;;3.72;2.35;;;;;;;4.85;96.88;94991.06;5071190;28;20927;-79
2022/11/30 07:12:57;;;;;;;2.83;1.90;;;;;;;4.96;96.81;95024.59;5071990;28;20442;-76
2022/11/30 07:15:23;;;;;;;2.58;2.10;;;;;;;5.03;96.00;95020.31;5071771;28;20445;-76
2022/11/30 07:17:48;;;;;;;2.70;2.00;;;;;;;5.13;95.97;95030.53;5069873;28;20425;-75
2022/11/30 07:20:14;;;;;;;3.60;2.20;;;;;;;5.20;95.23;95032.28;5070285;28;20420;-75
2022/11/30 07:22:39;;;;;;;3.22;2.53;;;;;;;5.25;94.25;95019.53;5070721;28;20437;-76
2022/11/30 07:27:49;;;;;;;4.35;2.70;;;;;;;5.22;93.29;95025.09;5071310;28;20851;-75
2022/11/30 07:30:15;;;;;;;5.20;2.53;;;;;;;5.21;92.95;95027.84;5070557;28;20532;-76
2022/11/30 07:32:40;;;;;;;3.60;2.70;;;;;;;5.25;93.14;95021.31;5067270;28;20453;-75
2022/11/30 07:35:06;;;;;;;4.07;2.73;;;;;;;5.35;93.29;95031.53;5070219;28;20409;-76
2022/11/30 07:37:31;;;;;;;4.43;2.33;;;;;;;5.30;93.32;95022.41;5071340;28;20175;-76
2022/11/30 07:39:57;;;;;;;4.60;2.70;;;;;;;5.15;93.32;95013.72;5070005;28;20409;-76
2022/11/30 07:42:22;;;;;;;5.83;2.77;;;;;;;5.14;93.77;95009.50;5070119;28;20900;-76
2022/11/30 07:44:48;;;;;;;6.22;3.00;;;;;;;5.19;94.55;95022.03;5052772;28;20414;-76
2022/11/30 07:47:14;;;;;;;6.30;3.00;;;;;;;5.32;93.29;95014.41;5070453;28;20409;-76
2022/11/30 07:49:40;;;;;;;6.63;2.85;;;;;;;5.39;92.77;95015.34;5070055;28;20410;-75
2022/11/30 07:52:06;;;;;;;5.25;3.00;;;;;;;5.37;92.85;95008.66;5069985;28;20824;-76
2022/11/30 07:54:31;;;;;;;5.88;2.95;;;;;;;5.41;92.93;95010.75;5070429;28;20862;-76
2022/11/30 07:56:57;;;;;;;4.75;3.20;;;;;;;5.41;92.38;95013.38;5070002;28;20776;-76
2022/11/30 07:59:22;;;;;;;6.20;2.90;;;;;;;5.45;92.52;95013.84;5069889;28;20418;-75
2022/11/30 08:01:47;;;;;;;5.70;2.70;;;;;;;5.32;92.54;94996.16;5070742;28;20948;-76
2022/11/30 08:04:13;;;;;;;5.03;2.90;;;;;;;5.34;93.29;95011.63;5067992;28;20487;-76
2022/11/30 08:06:39;;;;;;;5.05;2.90;;;;;;;5.25;93.50;94992.63;5070427;28;20956;-76
2022/11/30 08:09:06;;;;;;;4.72;2.95;;;;;;;5.41;93.67;95010.75;5069988;28;20472;-76
2022/11/30 08:11:33;;;;;;;6.63;3.50;;;;;;;5.32;93.82;95014.41;5070290;28;20433;-76
2022/11/30 08:13:59;;;;;;;6.15;3.10;;;;;;;5.35;94.37;95019.31;5070081;28;20461;-76
2022/11/30 08:16:27;;;;;;;5.10;3.30;;;;;;;5.46;94.35;95011.03;5069872;28;20939;-76
2022/11/30 08:18:55;;;;;;;4.78;3.10;;;;;;;5.37;94.09;94999.03;5070382;28;20413;-76
2022/11/30 08:21:21;;;;;;;5.40;3.10;;;;;;;5.35;94.04;94993.19;5070820;28;20485;-76
2022/11/30 08:23:52;;;;;;;4.95;2.67;;;;;;;5.55;93.89;95011.78;5068575;28;20496;-76
2022/11/30 08:26:20;;;;;;;5.80;2.70;;;;;;;5.66;93.65;95030.47;5070346;28;20429;-76
2022/11/30 08:28:48;;;;;;;5.97;2.80;;;;;;;5.71;93.89;95016.06;5069606;28;20474;-76
2022/11/30 08:31:22;;;;;;;4.18;2.90;;;;;;;5.83;92.78;95015.47;5069656;28;20912;-76
2022/11/30 08:33:48;;;;;;;5.78;3.00;;;;;;;5.88;92.92;95018.38;5069913;28;20898;-76
2022/11/30 08:36:19;;;;;;;4.40;2.47;;;;;;;5.66;92.65;95027.03;5071306;28;20181;-76
2022/11/30 08:38:46;;;;;;;3.70;2.47;;;;;;;5.68;93.98;95030.28;5069508;28;20445;-76
2022/11/30 08:41:15;;;;;;;5.20;2.90;;;;;;;5.65;93.51;95033.25;5069495;28;20417;-76
2022/11/30 08:43:40;;;;;;;8.63;3.13;;;;;;;5.72;93.88;95018.50;5070661;28;20406;-76
2022/11/30 08:46:08;;;;;;;5.60;2.83;;;;;;;5.71;94.17;95000.41;5069307;28;20417;-76
2022/11/30 08:48:34;;;;;;;5.20;2.70;;;;;;;5.91;92.79;95020.63;5068576;28;20413;-76
2022/11/30 08:51:01;;;;;;;5.22;2.90;;;;;;;6.00;92.25;95016.97;5069942;28;20801;-76
2022/11/30 08:53:27;;;;;;;6.20;3.30;;;;;;;5.95;92.10;95021.91;5070726;28;20281;-76
2022/11/30 08:56:01;;;;;;;4.50;2.83;;;;;;;6.11;91.77;95020.94;5069962;28;21021;-77
2022/11/30 08:58:31;;;;;;;6.70;3.10;;;;;;;6.06;91.67;95018.03;5062940;28;20502;-75
2022/11/30 09:01:15;;;;;;;6.30;3.17;;;;;;;6.05;91.67;95024.28;5070168;28;20182;-75
2022/11/30 09:03:42;;;;;;;5.40;3.38;;;;;;;6.05;92.60;95016.44;5067197;28;20804;-76
2022/11/30 09:06:13;;;;;;;4.88;3.05;;;;;;;6.06;91.75;95024.06;5069114;28;20429;-76
2022/11/30 09:08:40;;;;;;;5.33;3.40;;;;;;;6.09;92.04;95019.47;5070086;28;20181;-76
2022/11/30 09:11:22;;;;;;;4.63;3.28;;;;;;;6.02;92.53;95004.53;5068553;28;20768;-76
2022/11/30 09:13:48;;;;;;;5.85;3.20;;;;;;;6.09;91.14;95017.69;5069056;28;20440;-75
2022/11/30 09:16:16;;;;;;;4.90;3.07;;;;;;;6.19;91.52;95025.25;5070093;28;20171;-75
2022/11/30 09:18:42;;;;;;;4.50;3.30;;;;;;;6.23;91.36;95029.13;5068272;28;20467;-75
2022/11/30 09:21:11;;;;;;;4.70;3.00;;;;;;;6.31;90.02;95031.69;5051243;28;20433;-76
2022/11/30 09:23:38;;;;;;;6.63;2.90;;;;;;;6.32;90.91;95034.09;5071163;28;20170;-76
2022/11/30 09:26:06;;;;;;;5.47;2.90;;;;;;;6.20;89.98;95009.41;5052056;28;20646;-76
2022/11/30 09:28:32;;;;;;;7.23;3.03;;;;;;;6.42;90.51;95034.63;5068180;28;20551;-76
2022/11/30 09:31:11;;;;;;;4.93;3.10;;;;;;;6.43;89.40;95043.28;5068980;28;20848;-77
2022/11/30 09:33:38;;;;;;;4.20;2.47;;;;;;;6.41;90.28;95034.81;5070495;28;20202;-76
2022/11/30 09:36:06;;;;;;;6.47;3.07;;;;;;;6.47;89.15;95041.94;5069861;28;20182;-76
2022/11/30 09:38:32;;;;;;;5.87;2.40;;;;;;;6.38;88.90;95040.41;5069968;28;20182;-77
2022/11/30 09:41:18;;;;;;;3.07;1.97;;;;;;;6.41;88.62;95051.31;5070516;28;20572;-76
2022/11/30 09:44:16;;;;;;;7.23;1.97;;;;;;;6.04;90.19;95033.91;5039034;28;20198;-76
2022/11/30 09:47:08;;;;;;;1.93;1.60;;;;;;;6.07;91.04;95046.59;5053786;28;20324;-77
2022/11/30 09:49:36;;;;;;;8.70;2.13;;;;;;;6.13;91.41;95047.72;5074404;28;20178;-77
2022/11/30 09:52:08;;;;;;;1.50;1.37;;;;;;;6.04;91.47;95052.19;5074109;28;20206;-76
2022/11/30 09:54:39;;;;;;;3.23;1.47;;;;;;;6.05;92.28;95042.56;5073337;28;20265;-77
2022/11/30 09:57:38;;;;;;;3.13;1.80;;;;;;;6.04;92.46;95038.31;5072832;28;21083;-77
2022/11/30 10:00:30;;;;;;;6.40;2.40;;;;;;;6.13;92.06;95028.59;5074177;28;20228;-77
2022/11/30 10:03:00;;;;;;;2.50;1.80;;;;;;;6.15;87.28;95031.81;5070305;28;20205;-77
2022/11/30 10:05:41;;;;;;;5.00;2.53;;;;;;;6.17;85.74;95032.47;5074318;28;20633;-76
2022/11/30 10:08:31;;;;;;;4.03;2.13;;;;;;;6.19;84.93;95028.69;5073556;28;20701;-76
2022/11/30 10:11:06;;;;;;;2.53;2.20;;;;;;;6.10;84.93;95021.91;5073936;28;20629;-77
2022/11/30 10:13:49;;;;;;;3.87;2.30;;;;;;;6.11;85.28;95022.75;5074035;28;20233;-77
2022/11/30 10:16:15;;;;;;;3.03;2.40;;;;;;;6.15;86.40;95022.19;5073650;28;20182;-77
2022/11/30 10:19:00;;;;;;;4.27;1.57;;;;;;;6.15;87.65;95014.34;5073717;28;20216;-77
2022/11/30 10:21:53;;;;;;;3.20;2.03;;;;;;;6.14;89.74;95007.50;5032886;28;20190;-77
2022/11/30 10:24:38;;;;;;;4.50;1.60;;;;;;;6.10;90.95;95011.47;5073644;28;20193;-76
2022/11/30 10:27:17;;;;;;;2.60;1.60;;;;;;;6.12;91.89;94991.22;5073532;28;20239;-77
2022/11/30 10:29:43;;;;;;;1.97;1.70;;;;;;;6.16;91.73;94995.06;5073492;28;20529;-76
2022/11/30 10:32:18;;;;;;;4.37;2.10;;;;;;;6.19;92.45;94992.09;5073405;28;20224;-77
2022/11/30 10:34:47;;;;;;;4.30;1.90;;;;;;;6.07;92.57;94991.72;5073359;28;20188;-76
2022/11/30 10:37:25;;;;;;;4.27;1.23;;;;;;;5.98;93.43;94997.22;5073047;28;20253;-77
2022/11/30 10:39:54;;;;;;;3.40;1.73;;;;;;;6.01;94.13;94996.88;5073294;28;20259;-77
2022/11/30 10:42:36;;;;;;;2.60;1.70;;;;;;;6.05;93.97;94996.31;5073455;28;20174;-78
2022/11/30 10:45:18;;;;;;;2.30;1.73;;;;;;;6.06;94.43;94991.91;5073030;28;20653;-77
2022/11/30 10:48:04;;;;;;;2.07;1.57;;;;;;;6.15;94.46;94988.22;5073146;28;20182;-77
2022/11/30 10:50:30;;;;;;;5.80;1.10;;;;;;;6.13;93.65;94992.84;5072874;28;20174;-75
2022/11/30 10:52:58;;;;;;;1.60;1.17;;;;;;;5.95;93.85;94967.06;5071383;28;20182;-77
2022/11/30 10:55:28;;;;;;;1.80;1.23;;;;;;;5.79;94.31;94953.31;5072577;28;20179;-74
2022/11/30 10:58:01;;;;;;;4.33;1.60;;;;;;;5.90;93.89;94973.78;5071951;28;20600;-73
2022/11/30 11:00:27;;;;;;;4.73;1.60;;;;;;;5.89;94.50;94974.78;5072896;28;20178;-75
2022/11/30 11:02:52;;;;;;;3.17;1.70;;;;;;;6.03;94.98;94981.81;5072712;28;20185;-76
2022/11/30 11:05:24;;;;;;;2.90;1.60;;;;;;;6.15;94.44;94985.59;5072148;28;21045;-76
2022/11/30 11:07:54;;;;;;;4.67;1.63;;;;;;;6.25;94.67;94980.09;5072410;28;20222;-75
2022/11/30 11:10:26;;;;;;;1.88;1.48;;;;;;;6.06;93.29;94963.16;5071241;28;20434;-76
2022/11/30 11:12:53;;;;;;;2.10;1.90;;;;;;;6.19;93.91;94968.56;5073082;28;20186;-77
2022/11/30 11:15:29;;;;;;;3.33;2.10;;;;;;;6.30;93.80;94970.75;5072642;28;20194;-76
2022/11/30 11:18:16;;;;;;;4.13;2.10;;;;;;;6.29;93.21;94965.69;5071168;28;20261;-76
2022/11/30 11:20:42;;;;;;;3.73;1.70;;;;;;;6.15;93.11;94962.06;5069805;28;20182;-77
2022/11/30 11:23:32;;;;;;;3.10;1.50;;;;;;;6.19;92.94;94962.53;5070227;28;20594;-77
2022/11/30 11:25:57;;;;;;;6.10;2.40;;;;;;;6.02;93.71;94962.72;5069181;28;20414;-77
2022/11/30 11:28:24;;;;;;;5.73;2.30;;;;;;;6.03;94.30;94963.53;5069089;28;20182;-77
2022/11/30 11:30:54;;;;;;;3.00;1.83;;;;;;;6.00;93.78;94950.81;5069868;28;20189;-77
2022/11/30 11:33:23;;;;;;;4.03;2.07;;;;;;;6.04;94.16;94960.75;5070918;28;20501;-77
2022/11/30 11:35:51;;;;;;;3.80;1.80;;;;;;;5.74;94.92;94945.19;5070416;28;20421;-77
2022/11/30 11:38:27;;;;;;;2.85;2.15;;;;;;;6.03;94.66;94972.19;5070579;28;20788;-76
2022/11/30 11:41:01;;;;;;;4.23;2.47;;;;;;;5.99;94.65;94970.91;5071291;28;20178;-77
2022/11/30 11:43:39;;;;;;;2.83;1.77;;;;;;;5.93;94.57;94955.97;5071375;28;20173;-77
2022/11/30 11:46:12;;;;;;;4.23;2.27;;;;;;;6.01;94.95;94963.72;5071104;28;20182;-77
2022/11/30 11:48:47;;;;;;;4.87;1.93;;;;;;;6.10;94.83;94963.63;5071173;28;20185;-77
2022/11/30 11:51:13;;;;;;;5.27;2.00;;;;;;;6.18;94.56;94947.84;5070994;28;20182;-77